Time;durP1;ratioP1;P1;durP2;ratioP2;P2;SDS_P1;SDS_P2;PMS_P1;PMS_P2;Temp;Humidity;BMP_temperature;BMP_pressure;BME280_temperature;BME280_humidity;BME280_pressure;Samples;Min_cycle;Max_cycle;Signal;HPM_P1;HPM_P2
2022/03/04 00:02:05;;;;;;;2.63;1.20;;;21.90;44.10;;;;;;5035530;28;20092;-67
2022/03/04 00:04:34;;;;;;;3.65;1.40;;;21.90;44.10;;;;;;5034096;28;20025;-65
2022/03/04 00:07:00;;;;;;;2.05;1.30;;;21.90;44.10;;;;;;5027250;28;20569;-67
2022/03/04 00:09:26;;;;;;;2.70;1.20;;;21.80;44.10;;;;;;5033732;28;20030;-67
2022/03/04 00:11:52;;;;;;;2.20;1.25;;;21.80;44.00;;;;;;5032377;28;20033;-67
2022/03/04 00:14:19;;;;;;;2.17;1.35;;;21.80;44.00;;;;;;5018086;28;20052;-66
2022/03/04 00:16:45;;;;;;;2.22;1.20;;;21.80;44.00;;;;;;5036251;28;20120;-66
2022/03/04 00:19:11;;;;;;;2.38;1.20;;;21.80;44.00;;;;;;5035317;28;20067;-66
2022/03/04 00:21:49;;;;;;;2.13;1.23;;;21.80;44.00;;;;;;5035638;28;20064;-66
2022/03/04 00:24:16;;;;;;;2.17;1.20;;;21.80;44.00;;;;;;5033239;28;20366;-64
2022/03/04 00:26:41;;;;;;;2.40;1.50;;;21.80;44.00;;;;;;5032559;28;20026;-66
2022/03/04 00:29:08;;;;;;;3.10;1.30;;;21.80;44.00;;;;;;5032887;28;20095;-66
2022/03/04 00:31:34;;;;;;;2.25;1.30;;;21.80;44.00;;;;;;5034487;28;20025;-66
2022/03/04 00:34:00;;;;;;;1.98;1.13;;;21.80;44.00;;;;;;5034907;28;20511;-66
2022/03/04 00:36:27;;;;;;;2.50;1.20;;;21.70;44.00;;;;;;5019130;28;20512;-64
2022/03/04 00:38:55;;;;;;;2.88;1.20;;;21.70;43.90;;;;;;5036537;28;20025;-66
2022/03/04 00:41:22;;;;;;;2.17;1.20;;;21.80;44.00;;;;;;5037097;28;20025;-64
2022/03/04 00:43:48;;;;;;;1.55;1.13;;;21.80;44.00;;;;;;5037660;28;20082;-67
2022/03/04 00:46:15;;;;;;;2.47;1.50;;;21.70;43.90;;;;;;5037050;28;20047;-64
2022/03/04 00:48:42;;;;;;;1.98;1.20;;;21.70;43.90;;;;;;5038241;28;20021;-68
2022/03/04 00:51:08;;;;;;;1.95;1.13;;;21.70;43.90;;;;;;5037554;28;20025;-66
2022/03/04 00:53:34;;;;;;;2.53;1.38;;;21.70;43.90;;;;;;5035678;28;20021;-66
2022/03/04 00:56:00;;;;;;;2.53;1.25;;;21.70;43.90;;;;;;5017897;28;20123;-68
2022/03/04 00:58:25;;;;;;;2.17;1.20;;;21.70;43.90;;;;;;5038877;28;20550;-69
2022/03/04 01:00:51;;;;;;;2.25;1.30;;;21.70;43.90;;;;;;5037403;28;20040;-67
2022/03/04 01:03:17;;;;;;;2.05;1.20;;;21.70;43.90;;;;;;5038079;28;20450;-68
2022/03/04 01:05:43;;;;;;;2.38;1.45;;;21.70;43.90;;;;;;5038977;28;20444;-66
2022/03/04 01:08:09;;;;;;;2.25;1.30;;;21.60;44.40;;;;;;5036368;28;20025;-67
2022/03/04 01:10:35;;;;;;;2.17;1.20;;;21.70;43.90;;;;;;5037542;28;20030;-66
2022/03/04 01:13:01;;;;;;;2.25;1.35;;;21.60;43.80;;;;;;5038078;28;20366;-65
2022/03/04 01:15:27;;;;;;;1.90;1.33;;;21.60;43.90;;;;;;5036307;28;20022;-67
2022/03/04 01:17:53;;;;;;;2.15;1.23;;;21.60;43.80;;;;;;5037937;28;20618;-68
2022/03/04 01:20:24;;;;;;;2.33;1.25;;;21.60;43.80;;;;;;5037738;28;20075;-67
2022/03/04 01:22:49;;;;;;;2.22;1.20;;;21.60;43.80;;;;;;5036536;28;20052;-66
2022/03/04 01:25:15;;;;;;;2.35;1.40;;;21.60;43.80;;;;;;5034719;28;20103;-67
2022/03/04 01:27:41;;;;;;;2.50;1.25;;;21.60;43.80;;;;;;5017844;28;20017;-66
2022/03/04 01:30:09;;;;;;;2.30;1.30;;;21.60;43.80;;;;;;5036635;28;20029;-66
2022/03/04 01:32:36;;;;;;;2.50;1.38;;;21.60;43.80;;;;;;5038333;28;20461;-67
2022/03/04 01:35:02;;;;;;;2.42;1.30;;;21.60;43.80;;;;;;5037300;28;20032;-67
2022/03/04 01:37:28;;;;;;;2.22;1.35;;;21.60;43.80;;;;;;5037367;28;20468;-66
2022/03/04 01:39:53;;;;;;;2.20;1.30;;;21.50;43.80;;;;;;5035895;28;20044;-68
2022/03/04 01:42:19;;;;;;;2.20;1.30;;;21.50;43.70;;;;;;5036305;28;20037;-68
2022/03/04 01:44:45;;;;;;;1.95;1.25;;;21.50;43.80;;;;;;5035639;28;20164;-67
2022/03/04 01:47:12;;;;;;;2.33;1.30;;;21.50;43.80;;;;;;5036675;28;20025;-64
2022/03/04 01:49:39;;;;;;;2.60;1.25;;;21.50;43.80;;;;;;5035641;28;20028;-64
2022/03/04 01:52:05;;;;;;;2.20;1.40;;;21.50;44.30;;;;;;5036229;28;20039;-64
2022/03/04 01:54:31;;;;;;;2.17;1.20;;;21.50;44.30;;;;;;5032821;28;20032;-68
2022/03/04 01:56:57;;;;;;;2.53;1.20;;;21.50;43.80;;;;;;5036283;28;20033;-66
2022/03/04 01:59:22;;;;;;;2.55;1.27;;;21.50;43.80;;;;;;5037323;28;20049;-65
2022/03/04 02:01:48;;;;;;;2.00;1.25;;;21.50;43.70;;;;;;5038560;28;20183;-65
2022/03/04 02:04:14;;;;;;;2.53;1.40;;;21.50;43.70;;;;;;5036704;28;20043;-65
2022/03/04 02:06:39;;;;;;;2.78;1.27;;;21.50;43.80;;;;;;5036356;28;20047;-68
2022/03/04 02:09:05;;;;;;;2.05;1.20;;;21.50;43.80;;;;;;5035086;28;20451;-66
2022/03/04 02:11:31;;;;;;;2.35;1.30;;;21.40;43.70;;;;;;5033166;28;20033;-68
2022/03/04 02:13:56;;;;;;;2.13;1.15;;;21.40;43.70;;;;;;5017192;28;20036;-68
2022/03/04 02:16:26;;;;;;;2.30;1.30;;;21.40;43.70;;;;;;5036326;28;20029;-68
2022/03/04 02:18:53;;;;;;;1.98;1.20;;;21.40;43.70;;;;;;5038038;28;20367;-68
2022/03/04 02:21:22;;;;;;;2.35;1.30;;;21.40;43.70;;;;;;5036234;28;20024;-68
2022/03/04 02:23:48;;;;;;;2.70;1.50;;;21.40;43.70;;;;;;5034987;28;20033;-65
2022/03/04 02:26:14;;;;;;;2.10;1.30;;;21.40;43.70;;;;;;5034271;28;20371;-68
2022/03/04 02:28:40;;;;;;;2.15;1.40;;;21.40;43.70;;;;;;5036761;28;20036;-65
2022/03/04 02:31:06;;;;;;;1.88;1.20;;;21.40;43.70;;;;;;5035035;28;20140;-68
2022/03/04 02:33:31;;;;;;;1.85;1.20;;;21.30;43.70;;;;;;5036033;28;20052;-66
2022/03/04 02:35:57;;;;;;;2.60;1.40;;;21.40;43.70;;;;;;5036058;28;20044;-66
2022/03/04 02:38:23;;;;;;;2.17;1.30;;;21.30;43.60;;;;;;5034750;28;20113;-64
2022/03/04 02:40:48;;;;;;;1.80;1.00;;;21.30;43.70;;;;;;5034892;28;20029;-68
2022/03/04 02:43:14;;;;;;;2.75;1.58;;;21.30;43.60;;;;;;5035533;28;20231;-66
2022/03/04 02:45:40;;;;;;;2.38;1.20;;;21.30;43.70;;;;;;5035979;28;20056;-67
2022/03/04 02:48:05;;;;;;;2.05;1.20;;;21.30;43.60;;;;;;5032224;28;20033;-67
2022/03/04 02:50:31;;;;;;;2.03;1.30;;;21.30;43.60;;;;;;5035798;28;20047;-64
2022/03/04 02:52:57;;;;;;;1.85;1.20;;;21.30;43.60;;;;;;5033699;28;20029;-67
2022/03/04 02:55:22;;;;;;;1.98;1.30;;;21.30;43.60;;;;;;5032316;28;20040;-66
2022/03/04 02:57:48;;;;;;;2.05;1.40;;;21.30;43.70;;;;;;5034895;28;20112;-67
2022/03/04 03:00:16;;;;;;;2.28;1.40;;;21.30;43.70;;;;;;5035227;28;20044;-65
2022/03/04 03:02:42;;;;;;;1.55;1.15;;;21.30;43.70;;;;;;5036977;28;20091;-67
2022/03/04 03:05:09;;;;;;;2.63;1.50;;;21.30;43.70;;;;;;5035384;28;20055;-67
2022/03/04 03:07:35;;;;;;;1.88;1.17;;;21.20;43.60;;;;;;5037141;28;20021;-65
2022/03/04 03:10:01;;;;;;;2.28;1.33;;;21.20;43.60;;;;;;5032479;28;20087;-65
2022/03/04 03:12:26;;;;;;;2.00;1.27;;;21.20;43.60;;;;;;5034979;28;20092;-67
2022/03/04 03:14:52;;;;;;;2.05;1.30;;;21.20;43.60;;;;;;5035518;28;20475;-68
2022/03/04 03:17:18;;;;;;;2.38;1.30;;;21.20;43.60;;;;;;5035773;28;20067;-66
2022/03/04 03:19:43;;;;;;;2.22;1.33;;;21.20;43.60;;;;;;5035498;28;20035;-66
2022/03/04 03:22:09;;;;;;;2.50;1.40;;;21.20;43.70;;;;;;5035576;28;20091;-67
2022/03/04 03:24:35;;;;;;;2.88;1.60;;;21.20;43.60;;;;;;5033032;28;20029;-66
2022/03/04 03:27:00;;;;;;;2.20;1.15;;;21.20;43.60;;;;;;5032682;28;20060;-64
2022/03/04 03:29:26;;;;;;;2.25;1.15;;;21.20;43.60;;;;;;5033761;28;20033;-63
2022/03/04 03:31:52;;;;;;;1.77;1.20;;;21.20;43.60;;;;;;5034291;28;20136;-66
2022/03/04 03:34:17;;;;;;;1.73;1.13;;;21.20;43.70;;;;;;5036557;28;20079;-68
2022/03/04 03:36:43;;;;;;;2.00;1.30;;;21.10;43.60;;;;;;5036078;28;20086;-66
2022/03/04 03:39:09;;;;;;;1.95;1.27;;;21.10;43.60;;;;;;5033030;28;20033;-68
2022/03/04 03:41:35;;;;;;;2.45;1.40;;;21.10;43.60;;;;;;5015132;28;20761;-64
2022/03/04 03:44:02;;;;;;;2.28;1.20;;;21.10;43.60;;;;;;5036185;28;20056;-68
2022/03/04 03:46:27;;;;;;;2.30;1.30;;;21.10;43.60;;;;;;5034035;28;20428;-68
2022/03/04 03:48:53;;;;;;;2.13;1.30;;;21.10;43.60;;;;;;5033630;28;20103;-67
2022/03/04 03:51:19;;;;;;;2.13;1.20;;;21.10;43.60;;;;;;5032592;28;20116;-67
2022/03/04 03:53:44;;;;;;;2.35;1.35;;;21.10;43.60;;;;;;5034967;28;20032;-66
2022/03/04 03:56:10;;;;;;;2.05;1.20;;;21.10;43.60;;;;;;5033304;28;20123;-66
2022/03/04 03:58:36;;;;;;;2.30;1.38;;;21.10;43.60;;;;;;5035542;28;20029;-67
2022/03/04 04:01:02;;;;;;;2.28;1.40;;;21.10;43.60;;;;;;5033990;28;20475;-65
2022/03/04 04:03:28;;;;;;;2.50;1.50;;;21.10;44.20;;;;;;5017197;28;20065;-64
2022/03/04 04:05:54;;;;;;;1.77;1.20;;;21.10;43.60;;;;;;5032216;28;20122;-65
2022/03/04 04:08:19;;;;;;;2.03;1.20;;;21.10;43.70;;;;;;5032724;28;20090;-68
2022/03/04 04:10:45;;;;;;;2.08;1.27;;;21.10;43.70;;;;;;5032739;28;20040;-67
2022/03/04 04:13:11;;;;;;;1.90;1.10;;;21.10;43.70;;;;;;5037848;28;20049;-66
2022/03/04 04:15:37;;;;;;;2.17;1.10;;;21.10;43.70;;;;;;5038541;28;20138;-67
2022/03/04 04:18:03;;;;;;;1.80;1.20;;;21.00;43.70;;;;;;5036021;28;20037;-64
2022/03/04 04:20:29;;;;;;;1.70;1.10;;;21.00;43.70;;;;;;5037264;28;20040;-68
2022/03/04 04:22:54;;;;;;;2.05;1.35;;;21.00;43.70;;;;;;5036833;28;20033;-63
2022/03/04 04:25:20;;;;;;;2.58;1.40;;;21.00;43.70;;;;;;5034880;28;20485;-66
2022/03/04 04:27:46;;;;;;;1.88;1.10;;;21.00;43.70;;;;;;5039301;28;20078;-66
2022/03/04 04:30:11;;;;;;;2.00;1.20;;;21.00;43.70;;;;;;5035719;28;20025;-66
2022/03/04 04:32:37;;;;;;;1.95;1.20;;;21.00;43.70;;;;;;5023683;28;20037;-66
2022/03/04 04:35:03;;;;;;;1.73;1.10;;;21.00;43.70;;;;;;5036095;28;20029;-66
2022/03/04 04:37:29;;;;;;;2.38;1.20;;;21.00;43.80;;;;;;5037186;28;20086;-68
2022/03/04 04:39:55;;;;;;;2.13;1.30;;;21.00;43.80;;;;;;5035822;28;20186;-66
2022/03/04 04:42:20;;;;;;;1.98;1.20;;;21.00;43.80;;;;;;5035168;28;20044;-64
2022/03/04 04:44:46;;;;;;;2.00;1.25;;;21.00;43.80;;;;;;5035453;28;20032;-67
2022/03/04 04:47:12;;;;;;;1.80;1.20;;;21.00;43.80;;;;;;5041084;28;20034;-67
2022/03/04 04:49:38;;;;;;;1.65;1.17;;;21.00;43.80;;;;;;5038378;28;20048;-68
2022/03/04 04:52:05;;;;;;;1.35;1.08;;;21.00;43.80;;;;;;5038713;28;20044;-67
2022/03/04 04:54:32;;;;;;;2.20;1.20;;;21.00;43.80;;;;;;5034039;28;20374;-64
2022/03/04 04:56:58;;;;;;;1.73;1.20;;;21.00;43.90;;;;;;5019673;28;20034;-68
2022/03/04 04:59:23;;;;;;;1.48;1.00;;;20.90;43.80;;;;;;5037694;28;20032;-65
2022/03/04 05:01:49;;;;;;;1.70;1.00;;;20.90;43.80;;;;;;5034894;28;20182;-65
2022/03/04 05:04:14;;;;;;;1.73;1.05;;;20.90;43.80;;;;;;5037663;28;20138;-67
2022/03/04 05:06:40;;;;;;;2.28;1.25;;;20.90;43.80;;;;;;5040336;28;20036;-65
2022/03/04 05:09:06;;;;;;;1.35;1.08;;;20.90;43.80;;;;;;5034799;28;20039;-66
2022/03/04 05:11:31;;;;;;;1.98;1.23;;;20.90;43.80;;;;;;5036110;28;20393;-67
2022/03/04 05:13:57;;;;;;;1.48;1.02;;;20.90;43.80;;;;;;5019795;28;20369;-68
2022/03/04 05:16:22;;;;;;;1.48;1.10;;;20.90;43.80;;;;;;5037687;28;20036;-68
2022/03/04 05:18:48;;;;;;;1.85;1.10;;;20.90;43.80;;;;;;5038281;28;20056;-66
2022/03/04 05:21:14;;;;;;;1.33;0.98;;;20.90;43.90;;;;;;5037266;28;20453;-67
2022/03/04 05:26:24;;;;;;;1.67;1.10;;;20.90;43.80;;;;;;5036199;28;20040;-68
2022/03/04 05:28:50;;;;;;;1.50;1.15;;;20.90;43.90;;;;;;5036107;28;20465;-67
2022/03/04 05:31:16;;;;;;;2.13;1.35;;;20.90;43.90;;;;;;5036007;28;20057;-68
2022/03/04 05:33:41;;;;;;;1.63;1.00;;;20.90;43.90;;;;;;5037706;28;20029;-67
2022/03/04 05:36:07;;;;;;;1.25;0.90;;;20.80;43.80;;;;;;5038116;28;20873;-66
2022/03/04 05:38:32;;;;;;;2.10;1.23;;;20.80;43.80;;;;;;5018088;28;20064;-68
2022/03/04 05:40:58;;;;;;;1.65;1.02;;;20.80;43.80;;;;;;5034361;28;20033;-66
2022/03/04 05:43:24;;;;;;;1.30;0.90;;;20.80;43.80;;;;;;5037894;28;20489;-68
2022/03/04 05:45:49;;;;;;;1.45;1.05;;;20.80;43.80;;;;;;5036909;28;20028;-67
2022/03/04 05:48:15;;;;;;;1.38;1.00;;;20.80;43.80;;;;;;5035868;28;20133;-65
2022/03/04 05:50:41;;;;;;;1.15;0.98;;;20.80;43.80;;;;;;5036662;28;20052;-68
2022/03/04 05:53:06;;;;;;;1.38;0.90;;;20.80;43.80;;;;;;5037486;28;20036;-68
2022/03/04 05:55:32;;;;;;;1.85;1.23;;;20.80;43.80;;;;;;5035137;28;20040;-67
2022/03/04 05:57:57;;;;;;;1.67;1.10;;;20.80;43.80;;;;;;5037104;28;20072;-68
2022/03/04 06:00:25;;;;;;;1.55;1.10;;;20.80;43.90;;;;;;5036682;28;20078;-64
2022/03/04 06:02:51;;;;;;;1.42;1.00;;;20.80;43.90;;;;;;5036915;28;20437;-64
2022/03/04 06:05:17;;;;;;;2.10;1.30;;;20.80;43.80;;;;;;5037593;28;20090;-66
2022/03/04 06:07:42;;;;;;;1.85;1.13;;;20.80;43.80;;;;;;5023050;28;20104;-64
2022/03/04 06:10:09;;;;;;;1.63;1.02;;;20.80;43.90;;;;;;5033452;28;20098;-67
2022/03/04 06:12:34;;;;;;;1.65;1.00;;;20.80;43.80;;;;;;5036327;28;20061;-67
2022/03/04 06:15:00;;;;;;;1.92;1.10;;;20.80;43.90;;;;;;5036513;28;20061;-66
2022/03/04 06:17:26;;;;;;;1.67;1.00;;;20.80;43.90;;;;;;5024934;28;20106;-66
2022/03/04 06:19:52;;;;;;;1.33;1.00;;;20.80;43.80;;;;;;5034422;28;20063;-68
2022/03/04 06:22:21;;;;;;;2.17;1.20;;;20.80;43.80;;;;;;5035932;28;20131;-67
2022/03/04 06:24:47;;;;;;;1.60;1.00;;;20.80;43.90;;;;;;5032805;28;20037;-65
2022/03/04 06:27:12;;;;;;;1.30;1.00;;;20.80;43.90;;;;;;5023008;28;20397;-67
2022/03/04 06:29:38;;;;;;;1.42;1.02;;;20.80;43.90;;;;;;5035369;28;20025;-65
2022/03/04 06:32:04;;;;;;;2.10;1.23;;;20.70;43.80;;;;;;5035296;28;20454;-66
2022/03/04 06:34:30;;;;;;;1.70;1.10;;;20.80;43.90;;;;;;5035350;28;20032;-66
2022/03/04 06:36:55;;;;;;;2.45;1.20;;;20.70;43.80;;;;;;5017041;28;20086;-65
2022/03/04 06:39:21;;;;;;;1.95;1.20;;;20.70;43.80;;;;;;5032596;28;20021;-66
2022/03/04 06:41:48;;;;;;;1.40;1.00;;;20.70;43.80;;;;;;5032864;28;20068;-66
2022/03/04 06:44:14;;;;;;;1.45;1.00;;;20.70;43.80;;;;;;5032269;28;20030;-67
2022/03/04 06:46:40;;;;;;;1.33;0.93;;;20.70;43.80;;;;;;5036626;28;20025;-65
2022/03/04 06:49:10;;;;;;;1.40;0.93;;;20.70;43.80;;;;;;5036902;28;20035;-64
2022/03/04 06:51:39;;;;;;;1.98;1.20;;;20.70;43.80;;;;;;5034748;28;20098;-67
2022/03/04 06:54:05;;;;;;;1.90;1.20;;;20.70;43.80;;;;;;5035192;28;20040;-66
2022/03/04 06:56:31;;;;;;;1.90;1.17;;;20.70;43.80;;;;;;5032961;28;20131;-68
2022/03/04 06:58:57;;;;;;;1.55;1.08;;;20.70;43.80;;;;;;5034079;28;20037;-66
2022/03/04 07:01:23;;;;;;;2.20;1.48;;;20.70;43.80;;;;;;5017428;28;20112;-67
2022/03/04 07:03:49;;;;;;;2.30;1.20;;;20.70;43.80;;;;;;5036270;28;20041;-67
2022/03/04 07:06:16;;;;;;;2.20;1.17;;;20.70;43.80;;;;;;5034798;28;20033;-68
2022/03/04 07:08:42;;;;;;;1.90;1.17;;;20.70;43.90;;;;;;5033451;28;20017;-68
2022/03/04 07:11:08;;;;;;;1.70;1.10;;;20.70;43.80;;;;;;5033848;28;20033;-66
2022/03/04 07:13:34;;;;;;;1.90;1.10;;;20.70;43.90;;;;;;5036908;28;20025;-67
2022/03/04 07:16:00;;;;;;;2.00;1.10;;;20.70;43.90;;;;;;5034923;28;20032;-67
2022/03/04 07:18:29;;;;;;;2.03;1.30;;;20.70;43.90;;;;;;5017921;28;20068;-65
2022/03/04 07:20:56;;;;;;;2.10;1.30;;;20.70;43.90;;;;;;5036854;28;20110;-66
2022/03/04 07:23:22;;;;;;;2.03;1.10;;;20.70;44.00;;;;;;5033694;28;20060;-65
2022/03/04 07:25:48;;;;;;;1.85;1.10;;;20.60;43.90;;;;;;5034163;28;20088;-68
2022/03/04 07:28:14;;;;;;;2.15;1.30;;;20.60;44.00;;;;;;5034862;28;20057;-67
2022/03/04 07:30:40;;;;;;;2.05;1.23;;;20.60;43.90;;;;;;5035487;28;20040;-63
2022/03/04 07:33:06;;;;;;;1.55;1.20;;;20.60;43.90;;;;;;5036342;28;20026;-65
2022/03/04 07:35:32;;;;;;;1.70;1.10;;;20.60;44.00;;;;;;5033646;28;20023;-67
2022/03/04 07:37:57;;;;;;;1.77;1.13;;;20.60;44.00;;;;;;5035776;28;20031;-65
2022/03/04 07:40:23;;;;;;;1.70;1.00;;;20.60;44.00;;;;;;5031809;28;20044;-67
2022/03/04 07:42:49;;;;;;;1.90;1.35;;;20.60;44.00;;;;;;5035210;28;20037;-66
2022/03/04 07:45:15;;;;;;;3.15;1.42;;;20.60;44.00;;;;;;5032965;28;20142;-66
2022/03/04 07:47:42;;;;;;;1.90;1.30;;;20.60;44.00;;;;;;5036730;28;20032;-65
2022/03/04 07:50:13;;;;;;;2.17;1.27;;;20.50;44.00;;;;;;5039276;28;20032;-65
2022/03/04 07:52:40;;;;;;;2.47;1.30;;;20.50;44.00;;;;;;5039691;28;20033;-69
2022/03/04 07:55:09;;;;;;;2.42;1.40;;;20.50;44.00;;;;;;5037685;28;20481;-65
2022/03/04 07:57:35;;;;;;;2.80;1.50;;;20.50;44.00;;;;;;5019273;28;20209;-64
2022/03/04 08:00:01;;;;;;;2.20;1.30;;;20.50;44.50;;;;;;5019274;28;20485;-66
2022/03/04 08:02:26;;;;;;;2.20;1.38;;;20.50;44.00;;;;;;5022806;28;20051;-64
2022/03/04 08:04:52;;;;;;;1.95;1.20;;;20.50;44.00;;;;;;5038473;28;20048;-66
2022/03/04 08:07:18;;;;;;;2.08;1.27;;;20.50;44.00;;;;;;5038810;28;20021;-68
2022/03/04 08:09:44;;;;;;;2.72;1.30;;;20.50;44.00;;;;;;5036231;28;20103;-66
2022/03/04 08:12:11;;;;;;;2.25;1.38;;;20.50;44.00;;;;;;5037793;28;20489;-68
2022/03/04 08:14:38;;;;;;;3.20;1.40;;;20.50;44.00;;;;;;5036459;28;20057;-66
2022/03/04 08:17:04;;;;;;;1.95;1.20;;;20.50;44.00;;;;;;5038130;28;20026;-66
2022/03/04 08:19:30;;;;;;;2.13;1.17;;;20.50;44.00;;;;;;5038795;28;20340;-68
2022/03/04 08:21:56;;;;;;;2.90;1.50;;;20.50;44.00;;;;;;5039554;28;20563;-64
2022/03/04 08:24:21;;;;;;;2.65;1.40;;;20.50;44.00;;;;;;5035240;28;20036;-65
2022/03/04 08:26:47;;;;;;;3.08;1.60;;;20.50;44.00;;;;;;5036598;28;20052;-68
2022/03/04 08:29:14;;;;;;;1.98;1.23;;;20.50;44.00;;;;;;5039538;28;20029;-63
2022/03/04 08:31:39;;;;;;;2.35;1.35;;;20.50;44.00;;;;;;5039769;28;20140;-66
2022/03/04 08:34:05;;;;;;;2.85;1.50;;;20.50;44.00;;;;;;5039718;28;20100;-65
2022/03/04 08:36:32;;;;;;;2.00;1.27;;;20.60;44.10;;;;;;5039941;28;20799;-65
2022/03/04 08:38:59;;;;;;;2.65;1.40;;;20.50;44.10;;;;;;5038669;28;20726;-67
2022/03/04 08:41:25;;;;;;;2.28;1.30;;;20.50;44.10;;;;;;5035570;28;20533;-65
2022/03/04 08:43:51;;;;;;;2.38;1.38;;;20.50;44.10;;;;;;5038573;28;20179;-65
2022/03/04 08:46:17;;;;;;;1.98;1.20;;;20.60;44.10;;;;;;5038971;28;20025;-66
2022/03/04 08:48:43;;;;;;;3.30;1.30;;;20.50;44.10;;;;;;5038232;28;20033;-67
2022/03/04 08:51:09;;;;;;;2.15;1.33;;;20.60;44.20;;;;;;5037646;28;20779;-66
2022/03/04 08:53:35;;;;;;;2.05;1.33;;;20.50;44.10;;;;;;5024863;28;20036;-65
2022/03/04 08:56:03;;;;;;;2.28;1.40;;;20.50;44.20;;;;;;5036415;28;20041;-63
2022/03/04 08:58:28;;;;;;;2.72;1.50;;;20.50;44.10;;;;;;5039669;28;20600;-64
2022/03/04 09:00:54;;;;;;;2.30;1.30;;;20.50;44.10;;;;;;5038057;28;20120;-66
2022/03/04 09:03:19;;;;;;;2.22;1.40;;;20.60;44.20;;;;;;5037539;28;20422;-64
2022/03/04 09:05:45;;;;;;;2.40;1.35;;;20.50;44.10;;;;;;5036411;28;20084;-68
2022/03/04 09:08:10;;;;;;;2.15;1.20;;;20.50;44.10;;;;;;5035728;28;20508;-66
2022/03/04 09:10:36;;;;;;;2.30;1.40;;;20.50;44.10;;;;;;5035519;28;20189;-68
2022/03/04 09:13:04;;;;;;;3.25;1.20;;;20.50;44.10;;;;;;5036691;28;20029;-65
2022/03/04 09:15:29;;;;;;;1.77;1.17;;;20.50;44.10;;;;;;5037157;28;20113;-65
2022/03/04 09:17:55;;;;;;;2.75;1.60;;;20.50;44.10;;;;;;5037636;28;20120;-65
2022/03/04 09:20:21;;;;;;;2.10;1.40;;;20.50;44.10;;;;;;5035574;28;20108;-64
2022/03/04 09:22:47;;;;;;;1.98;1.30;;;20.50;44.10;;;;;;5035721;28;20099;-67
2022/03/04 09:25:13;;;;;;;3.50;1.50;;;20.50;44.10;;;;;;5034841;28;20092;-66
2022/03/04 09:27:43;;;;;;;2.47;1.40;;;20.50;44.10;;;;;;5034496;28;20021;-68
2022/03/04 09:30:09;;;;;;;2.53;1.50;;;20.50;44.10;;;;;;5035000;28;20024;-66
2022/03/04 09:32:35;;;;;;;2.30;1.48;;;20.60;44.20;;;;;;5038832;28;20029;-66
2022/03/04 09:35:01;;;;;;;2.80;1.35;;;20.50;44.10;;;;;;5038313;28;20048;-66
2022/03/04 09:37:26;;;;;;;2.75;1.50;;;20.60;44.20;;;;;;5037313;28;20040;-65
2022/03/04 09:39:52;;;;;;;2.90;1.65;;;20.60;44.20;;;;;;5034983;28;20021;-66
2022/03/04 09:42:20;;;;;;;2.67;1.45;;;20.50;44.10;;;;;;5033043;28;20507;-62
2022/03/04 09:44:45;;;;;;;2.65;1.50;;;20.50;44.60;;;;;;5035853;28;20116;-65
2022/03/04 09:47:11;;;;;;;3.05;1.50;;;20.60;44.30;;;;;;5019313;28;20142;-65
2022/03/04 09:49:37;;;;;;;4.20;1.45;;;20.60;44.30;;;;;;5035343;28;20422;-64
2022/03/04 09:52:05;;;;;;;3.45;1.70;;;20.60;44.30;;;;;;5034016;28;20025;-67
2022/03/04 09:54:31;;;;;;;2.40;1.42;;;20.60;44.30;;;;;;5033064;28;20037;-68
2022/03/04 09:56:58;;;;;;;2.95;1.70;;;20.60;44.30;;;;;;5035297;28;20124;-65
2022/03/04 09:59:23;;;;;;;3.28;1.70;;;20.60;44.30;;;;;;5035656;28;20037;-65
2022/03/04 10:01:49;;;;;;;2.97;1.83;;;20.60;44.30;;;;;;5034958;28;20138;-65
2022/03/04 10:04:15;;;;;;;2.53;1.40;;;20.60;44.30;;;;;;5035183;28;20688;-69
2022/03/04 10:06:49;;;;;;;2.63;1.40;;;20.60;44.30;;;;;;5037639;28;20060;-68
2022/03/04 10:09:37;;;;;;;2.97;1.50;;;20.60;44.20;;;;;;5033332;28;20076;-65
2022/03/04 10:12:04;;;;;;;2.97;1.40;;;20.60;44.20;;;;;;5014787;28;20033;-63
2022/03/04 10:14:30;;;;;;;3.03;1.60;;;20.60;44.20;;;;;;5035663;28;20112;-65
2022/03/04 10:16:57;;;;;;;2.92;1.58;;;20.60;44.20;;;;;;5035827;28;20120;-68
2022/03/04 10:19:24;;;;;;;2.92;1.60;;;20.60;44.20;;;;;;5023279;28;20038;-64
2022/03/04 10:22:04;;;;;;;2.22;1.45;;;20.60;44.20;;;;;;5034372;28;20963;-68
2022/03/04 10:24:35;;;;;;;2.60;1.65;;;20.60;44.20;;;;;;5033484;28;20132;-64
2022/03/04 10:27:09;;;;;;;3.92;1.55;;;20.60;44.20;;;;;;5034896;28;20413;-68
2022/03/04 10:29:41;;;;;;;2.40;1.50;;;20.60;44.20;;;;;;5037372;28;20017;-68
2022/03/04 10:32:19;;;;;;;2.63;1.80;;;20.60;44.20;;;;;;5036486;28;20498;-64
2022/03/04 10:34:50;;;;;;;3.55;1.80;;;20.60;44.30;;;;;;5036722;28;20028;-67
2022/03/04 10:37:40;;;;;;;3.42;1.90;;;20.60;44.40;;;;;;5035241;28;20135;-66
2022/03/04 10:40:13;;;;;;;2.92;1.70;;;20.60;44.50;;;;;;5024900;28;20045;-67
2022/03/04 10:42:46;;;;;;;3.10;1.80;;;20.60;44.50;;;;;;5022928;28;20067;-67
2022/03/04 10:45:19;;;;;;;3.25;1.73;;;20.60;44.60;;;;;;5031142;28;20034;-65
2022/03/04 10:47:47;;;;;;;3.03;2.03;;;20.60;44.50;;;;;;5036292;28;20107;-68
2022/03/04 10:50:14;;;;;;;3.80;1.80;;;20.60;44.50;;;;;;5035965;28;20101;-66
2022/03/04 10:53:16;;;;;;;3.42;2.00;;;20.60;44.50;;;;;;5034635;28;20115;-66
2022/03/04 10:55:42;;;;;;;4.97;2.08;;;20.60;44.90;;;;;;5012270;28;20033;-65
2022/03/04 10:58:29;;;;;;;3.40;2.10;;;20.60;44.40;;;;;;5034767;28;20490;-65
2022/03/04 11:00:57;;;;;;;3.83;1.90;;;20.60;44.40;;;;;;5031758;28;20485;-68
2022/03/04 11:03:30;;;;;;;3.83;2.15;;;20.60;44.30;;;;;;5033573;28;20040;-64
2022/03/04 11:05:59;;;;;;;3.95;1.80;;;20.60;44.30;;;;;;5014151;28;20111;-68
2022/03/04 11:08:25;;;;;;;4.30;2.17;;;20.60;44.20;;;;;;5030824;28;20113;-68
2022/03/04 11:10:53;;;;;;;3.17;1.88;;;20.60;44.20;;;;;;5028324;28;20030;-68
2022/03/04 11:13:19;;;;;;;3.65;1.98;;;20.60;44.20;;;;;;5034854;28;20045;-66
2022/03/04 11:15:46;;;;;;;3.03;1.85;;;20.60;44.20;;;;;;5033213;28;20056;-68
2022/03/04 11:18:14;;;;;;;2.22;1.52;;;20.70;44.10;;;;;;5027036;28;20037;-68
2022/03/04 11:20:42;;;;;;;4.68;1.90;;;20.60;43.80;;;;;;5018813;28;20704;-68
2022/03/04 11:23:09;;;;;;;2.65;1.65;;;20.60;43.80;;;;;;5029643;28;20048;-68
2022/03/04 11:25:40;;;;;;;3.08;1.70;;;20.70;43.80;;;;;;5014065;28;20029;-68
2022/03/04 11:28:18;;;;;;;2.88;1.40;;;20.60;43.70;;;;;;5032712;28;20029;-68
2022/03/04 11:30:51;;;;;;;3.22;1.75;;;20.60;43.70;;;;;;5033580;28;20040;-65
2022/03/04 11:33:31;;;;;;;2.80;1.70;;;20.70;43.80;;;;;;5033349;28;20491;-64
2022/03/04 11:35:58;;;;;;;2.85;1.63;;;20.70;43.80;;;;;;5033420;28;20048;-64
2022/03/04 11:38:49;;;;;;;3.53;1.80;;;20.60;43.70;;;;;;5034207;28;20463;-66
2022/03/04 11:41:24;;;;;;;2.85;1.63;;;20.60;43.70;;;;;;5032175;28;20029;-69
2022/03/04 11:44:01;;;;;;;2.60;1.52;;;20.70;43.80;;;;;;5031730;28;20033;-64
2022/03/04 11:46:47;;;;;;;2.45;1.55;;;20.60;43.70;;;;;;5030344;28;20055;-65
2022/03/04 11:49:49;;;;;;;2.40;1.50;;;20.70;43.80;;;;;;5032284;28;20021;-68
2022/03/04 11:52:24;;;;;;;3.35;1.67;;;20.70;43.80;;;;;;5032811;28;20025;-66
2022/03/04 11:54:50;;;;;;;3.17;1.60;;;20.70;43.80;;;;;;5024305;28;20078;-66
2022/03/04 11:57:29;;;;;;;2.45;1.45;;;20.70;43.80;;;;;;5031184;28;20040;-64
2022/03/04 12:00:20;;;;;;;2.47;1.58;;;20.70;43.80;;;;;;5028672;28;20037;-67
2022/03/04 12:02:51;;;;;;;2.40;1.55;;;20.70;43.90;;;;;;5033494;28;20574;-68
2022/03/04 12:05:25;;;;;;;3.30;1.70;;;20.70;43.90;;;;;;5033174;28;20120;-67
2022/03/04 12:08:09;;;;;;;2.60;1.50;;;20.60;43.90;;;;;;5028632;28;20025;-67
2022/03/04 12:10:47;;;;;;;2.85;1.70;;;20.70;44.10;;;;;;5029334;28;20107;-67
2022/03/04 12:13:20;;;;;;;2.55;1.45;;;20.70;44.10;;;;;;5031331;28;20083;-68
2022/03/04 12:16:01;;;;;;;2.22;1.50;;;20.70;44.10;;;;;;5031516;28;20227;-67
2022/03/04 12:18:37;;;;;;;2.65;1.60;;;20.70;44.20;;;;;;5031319;28;20148;-68
2022/03/04 12:21:06;;;;;;;2.58;1.50;;;20.70;44.20;;;;;;5028946;28;20793;-66
2022/03/04 12:23:42;;;;;;;2.60;1.67;;;20.70;44.20;;;;;;5030327;28;20526;-66
2022/03/04 12:26:22;;;;;;;2.80;1.52;;;20.70;44.10;;;;;;5030618;28;20379;-68
2022/03/04 12:28:51;;;;;;;2.80;1.73;;;20.70;44.10;;;;;;5033618;28;20021;-68
2022/03/04 12:31:24;;;;;;;2.72;1.73;;;20.70;44.10;;;;;;5032796;28;20317;-65
2022/03/04 12:33:56;;;;;;;3.17;1.67;;;20.70;44.10;;;;;;5033869;28;20067;-64
2022/03/04 12:36:23;;;;;;;2.60;1.70;;;20.70;44.10;;;;;;5034220;28;20033;-67
2022/03/04 12:38:50;;;;;;;2.55;1.73;;;20.70;44.00;;;;;;5033845;28;20056;-68
2022/03/04 12:41:19;;;;;;;2.95;1.70;;;20.70;44.00;;;;;;5034110;28;20029;-67
2022/03/04 12:43:48;;;;;;;2.72;1.70;;;20.70;44.10;;;;;;5017991;28;20032;-68
2022/03/04 12:46:19;;;;;;;2.65;1.67;;;20.70;44.10;;;;;;5033629;28;20110;-67
2022/03/04 12:48:45;;;;;;;3.28;1.35;;;20.70;44.10;;;;;;5032086;28;20208;-64
2022/03/04 12:51:21;;;;;;;2.92;1.45;;;20.80;44.20;;;;;;5019427;28;20143;-67
2022/03/04 12:53:48;;;;;;;3.22;1.50;;;20.80;44.20;;;;;;5033787;28;20493;-67